sensor_id;sensor_type;location;lat;lon;timestamp;pressure;altitude;pressure_sealevel;temperature;humidity
59682;BME280;45548;39.530;-9.118;2022-08-19T07:06:12;101017.09;;;26.04;48.91
59682;BME280;45548;39.530;-9.118;2022-08-19T07:13:47;101014.81;;;28.34;42.50
59682;BME280;45548;39.530;-9.118;2022-08-19T07:16:16;101008.91;;;29.23;41.91
59682;BME280;45548;39.530;-9.118;2022-08-19T07:18:42;101008.59;;;29.95;38.91
59682;BME280;45548;39.530;-9.118;2022-08-19T07:21:18;101016.25;;;30.34;36.81
59682;BME280;45548;39.530;-9.118;2022-08-19T07:23:45;101025.88;;;30.67;36.63
59682;BME280;45548;39.530;-9.118;2022-08-19T07:26:17;101021.22;;;31.23;36.67
59682;BME280;45548;39.530;-9.118;2022-08-19T07:28:45;101019.78;;;31.84;35.17
59682;BME280;45548;39.530;-9.118;2022-08-19T07:31:12;101017.41;;;32.22;33.54
59682;BME280;45548;39.530;-9.118;2022-08-19T07:33:39;101024.91;;;32.25;34.24
59682;BME280;45548;39.530;-9.118;2022-08-19T07:36:07;101024.34;;;31.61;34.17
59682;BME280;45548;39.530;-9.118;2022-08-19T07:38:35;101028.41;;;31.72;33.83
59682;BME280;45548;39.530;-9.118;2022-08-19T07:41:01;101030.84;;;32.36;32.49
59682;BME280;45548;39.530;-9.118;2022-08-19T07:43:27;101037.84;;;32.85;31.89
59682;BME280;45548;39.530;-9.118;2022-08-19T07:45:54;101026.44;;;33.58;31.64
59682;BME280;45548;39.530;-9.118;2022-08-19T07:48:26;101034.69;;;33.87;30.10
59682;BME280;45548;39.530;-9.118;2022-08-19T07:50:54;101022.22;;;33.86;30.06
59682;BME280;45548;39.530;-9.118;2022-08-19T07:53:21;101026.50;;;34.05;29.66
59682;BME280;45548;39.530;-9.118;2022-08-19T07:55:47;101035.16;;;34.36;30.26
59682;BME280;45548;39.530;-9.118;2022-08-19T07:58:16;101034.06;;;34.96;29.36
59682;BME280;45548;39.530;-9.118;2022-08-19T08:00:43;101038.75;;;35.08;27.97
59682;BME280;45548;39.530;-9.118;2022-08-19T08:03:09;101030.75;;;34.23;29.17
59682;BME280;45548;39.530;-9.118;2022-08-19T08:05:34;101024.03;;;34.29;29.77
59682;BME280;45548;39.530;-9.118;2022-08-19T08:08:18;101028.03;;;35.12;28.50
59682;BME280;45548;39.530;-9.118;2022-08-19T08:11:07;101027.50;;;36.18;27.82
59682;BME280;45548;39.530;-9.118;2022-08-19T08:13:32;101031.59;;;36.60;26.78
59682;BME280;45548;39.530;-9.118;2022-08-19T08:16:01;101027.44;;;37.03;26.27
59682;BME280;45548;39.530;-9.118;2022-08-19T08:18:26;101030.75;;;37.37;25.22
59682;BME280;45548;39.530;-9.118;2022-08-19T08:20:52;101040.03;;;37.48;25.94
59682;BME280;45548;39.530;-9.118;2022-08-19T08:23:17;101035.97;;;37.86;24.83
59682;BME280;45548;39.530;-9.118;2022-08-19T08:25:54;101039.66;;;37.50;25.28
59682;BME280;45548;39.530;-9.118;2022-08-19T08:28:20;101037.28;;;37.48;25.09
59682;BME280;45548;39.530;-9.118;2022-08-19T08:30:47;101037.00;;;37.37;25.35
59682;BME280;45548;39.530;-9.118;2022-08-19T08:33:16;101041.09;;;37.87;24.67
59682;BME280;45548;39.530;-9.118;2022-08-19T08:35:42;101038.06;;;37.33;25.89
59682;BME280;45548;39.530;-9.118;2022-08-19T08:38:07;101046.88;;;36.77;25.51
59682;BME280;45548;39.530;-9.118;2022-08-19T08:45:47;101043.44;;;37.45;25.53
59682;BME280;45548;39.530;-9.118;2022-08-19T08:48:24;101044.09;;;37.54;25.08
59682;BME280;45548;39.530;-9.118;2022-08-19T08:50:57;101038.63;;;37.98;24.91
59682;BME280;45548;39.530;-9.118;2022-08-19T08:53:24;101038.19;;;38.43;23.93
59682;BME280;45548;39.530;-9.118;2022-08-19T08:55:50;101032.47;;;39.42;23.25
59682;BME280;45548;39.530;-9.118;2022-08-19T08:58:39;101038.47;;;40.13;22.81
59682;BME280;45548;39.530;-9.118;2022-08-19T09:01:11;101039.84;;;40.03;22.40
59682;BME280;45548;39.530;-9.118;2022-08-19T09:03:38;101040.25;;;39.20;23.79
59682;BME280;45548;39.530;-9.118;2022-08-19T09:06:38;101038.09;;;37.64;22.84
59682;BME280;45548;39.530;-9.118;2022-08-19T09:09:14;101035.31;;;37.77;24.56
59682;BME280;45548;39.530;-9.118;2022-08-19T09:12:04;101031.25;;;38.65;24.16
59682;BME280;45548;39.530;-9.118;2022-08-19T09:17:11;101036.44;;;39.87;21.18
59682;BME280;45548;39.530;-9.118;2022-08-19T09:19:52;101038.66;;;39.58;20.61
59682;BME280;45548;39.530;-9.118;2022-08-19T09:22:18;101037.19;;;39.83;20.53
59682;BME280;45548;39.530;-9.118;2022-08-19T09:24:49;101046.97;;;39.84;20.20
59682;BME280;45548;39.530;-9.118;2022-08-19T09:27:17;101038.66;;;39.39;20.28
59682;BME280;45548;39.530;-9.118;2022-08-19T09:29:43;101038.31;;;39.60;20.71
59682;BME280;45548;39.530;-9.118;2022-08-19T09:32:09;101034.91;;;39.47;21.24
59682;BME280;45548;39.530;-9.118;2022-08-19T09:34:35;101030.88;;;39.02;20.73
59682;BME280;45548;39.530;-9.118;2022-08-19T09:37:00;101040.38;;;38.89;22.00
59682;BME280;45548;39.530;-9.118;2022-08-19T09:39:26;101041.81;;;39.02;21.47
59682;BME280;45548;39.530;-9.118;2022-08-19T09:41:51;101037.06;;;38.64;22.03
59682;BME280;45548;39.530;-9.118;2022-08-19T09:44:18;101037.66;;;38.89;21.61
59682;BME280;45548;39.530;-9.118;2022-08-19T09:46:45;101042.16;;;38.30;21.23
59682;BME280;45548;39.530;-9.118;2022-08-19T09:49:12;101038.88;;;38.09;22.28
59682;BME280;45548;39.530;-9.118;2022-08-19T09:51:37;101045.16;;;38.25;22.18
59682;BME280;45548;39.530;-9.118;2022-08-19T09:54:04;101051.16;;;37.71;23.61
59682;BME280;45548;39.530;-9.118;2022-08-19T09:56:30;101055.94;;;37.46;24.38
59682;BME280;45548;39.530;-9.118;2022-08-19T09:58:58;101047.59;;;37.55;23.76
59682;BME280;45548;39.530;-9.118;2022-08-19T10:01:28;101055.66;;;37.35;23.73
59682;BME280;45548;39.530;-9.118;2022-08-19T10:03:58;101064.00;;;37.70;23.81
59682;BME280;45548;39.530;-9.118;2022-08-19T10:06:29;101058.44;;;38.11;22.65
59682;BME280;45548;39.530;-9.118;2022-08-19T10:08:58;101059.22;;;38.11;23.22
59682;BME280;45548;39.530;-9.118;2022-08-19T10:11:24;101049.56;;;38.30;23.20
59682;BME280;45548;39.530;-9.118;2022-08-19T10:13:49;101051.84;;;38.43;22.94
59682;BME280;45548;39.530;-9.118;2022-08-19T10:16:18;101053.66;;;38.71;22.80
59682;BME280;45548;39.530;-9.118;2022-08-19T10:18:45;101048.81;;;38.64;23.00
59682;BME280;45548;39.530;-9.118;2022-08-19T10:21:17;101049.22;;;38.66;22.24
59682;BME280;45548;39.530;-9.118;2022-08-19T10:23:45;101056.66;;;38.18;22.05
59682;BME280;45548;39.530;-9.118;2022-08-19T10:26:17;101056.88;;;38.41;22.20
59682;BME280;45548;39.530;-9.118;2022-08-19T10:28:43;101050.94;;;38.71;21.41
59682;BME280;45548;39.530;-9.118;2022-08-19T10:31:12;101051.28;;;38.54;22.14
59682;BME280;45548;39.530;-9.118;2022-08-19T10:33:39;101039.91;;;38.51;22.41
59682;BME280;45548;39.530;-9.118;2022-08-19T10:36:09;101049.00;;;38.40;22.53
59682;BME280;45548;39.530;-9.118;2022-08-19T10:38:35;101048.63;;;38.57;22.90
59682;BME280;45548;39.530;-9.118;2022-08-19T10:41:16;101045.19;;;38.76;22.62
59682;BME280;45548;39.530;-9.118;2022-08-19T10:43:42;101044.22;;;38.53;22.20
59682;BME280;45548;39.530;-9.118;2022-08-19T10:46:12;101042.13;;;38.46;21.92
59682;BME280;45548;39.530;-9.118;2022-08-19T10:48:38;101048.44;;;39.01;21.79
59682;BME280;45548;39.530;-9.118;2022-08-19T10:51:04;101046.75;;;39.31;20.82
59682;BME280;45548;39.530;-9.118;2022-08-19T10:53:49;101043.38;;;39.19;20.40
59682;BME280;45548;39.530;-9.118;2022-08-19T10:56:15;101040.03;;;38.90;21.03
59682;BME280;45548;39.530;-9.118;2022-08-19T10:58:59;101037.09;;;39.18;20.92
59682;BME280;45548;39.530;-9.118;2022-08-19T11:01:26;101034.75;;;39.01;20.78
59682;BME280;45548;39.530;-9.118;2022-08-19T11:03:52;101037.25;;;38.71;20.81
59682;BME280;45548;39.530;-9.118;2022-08-19T11:06:18;101031.38;;;38.88;20.93
59682;BME280;45548;39.530;-9.118;2022-08-19T11:08:45;101033.25;;;38.49;21.33
59682;BME280;45548;39.530;-9.118;2022-08-19T11:11:11;101030.28;;;37.79;21.90
59682;BME280;45548;39.530;-9.118;2022-08-19T11:13:39;101027.56;;;37.07;22.97
59682;BME280;45548;39.530;-9.118;2022-08-19T11:16:10;101037.66;;;37.06;23.41
59682;BME280;45548;39.530;-9.118;2022-08-19T11:18:37;101027.84;;;37.74;23.24
59682;BME280;45548;39.530;-9.118;2022-08-19T11:21:37;101023.78;;;37.67;22.43
59682;BME280;45548;39.530;-9.118;2022-08-19T11:24:05;101033.31;;;37.74;22.12
59682;BME280;45548;39.530;-9.118;2022-08-19T11:26:35;101030.09;;;37.71;23.62
59682;BME280;45548;39.530;-9.118;2022-08-19T11:29:03;101037.50;;;37.55;22.91
59682;BME280;45548;39.530;-9.118;2022-08-19T11:31:31;101033.91;;;37.39;24.28
59682;BME280;45548;39.530;-9.118;2022-08-19T11:33:58;101034.19;;;37.22;23.44
59682;BME280;45548;39.530;-9.118;2022-08-19T11:36:25;101035.34;;;37.33;23.75
59682;BME280;45548;39.530;-9.118;2022-08-19T11:38:51;101033.69;;;37.32;23.31
59682;BME280;45548;39.530;-9.118;2022-08-19T11:41:18;101028.22;;;37.44;23.11
59682;BME280;45548;39.530;-9.118;2022-08-19T11:43:44;101025.47;;;37.16;22.88
59682;BME280;45548;39.530;-9.118;2022-08-19T11:46:12;101024.97;;;37.26;23.94
59682;BME280;45548;39.530;-9.118;2022-08-19T11:48:38;101028.34;;;37.07;22.88
59682;BME280;45548;39.530;-9.118;2022-08-19T11:51:16;101025.44;;;36.76;23.39
59682;BME280;45548;39.530;-9.118;2022-08-19T11:53:43;101017.97;;;36.73;23.33
59682;BME280;45548;39.530;-9.118;2022-08-19T11:56:10;101015.78;;;36.90;23.19
59682;BME280;45548;39.530;-9.118;2022-08-19T11:58:36;101018.38;;;36.99;23.56
59682;BME280;45548;39.530;-9.118;2022-08-19T12:01:06;101014.75;;;36.95;22.91
59682;BME280;45548;39.530;-9.118;2022-08-19T12:03:32;101010.59;;;37.13;23.47
59682;BME280;45548;39.530;-9.118;2022-08-19T12:06:02;101015.88;;;36.82;24.08
59682;BME280;45548;39.530;-9.118;2022-08-19T12:08:27;101009.09;;;36.88;24.08
59682;BME280;45548;39.530;-9.118;2022-08-19T12:10:53;101017.84;;;37.22;24.23
59682;BME280;45548;39.530;-9.118;2022-08-19T12:13:18;101010.44;;;37.50;22.46
59682;BME280;45548;39.530;-9.118;2022-08-19T12:15:46;101005.38;;;37.64;22.55
59682;BME280;45548;39.530;-9.118;2022-08-19T12:18:12;101004.47;;;37.32;22.88
59682;BME280;45548;39.530;-9.118;2022-08-19T12:20:42;101009.31;;;37.23;22.51
59682;BME280;45548;39.530;-9.118;2022-08-19T12:23:08;101003.06;;;37.23;22.87
59682;BME280;45548;39.530;-9.118;2022-08-19T12:25:38;101009.41;;;37.27;22.79
59682;BME280;45548;39.530;-9.118;2022-08-19T12:28:12;101006.34;;;37.28;23.06
59682;BME280;45548;39.530;-9.118;2022-08-19T12:30:38;101007.53;;;37.15;22.39
59682;BME280;45548;39.530;-9.118;2022-08-19T12:33:04;100995.84;;;37.42;22.59
59682;BME280;45548;39.530;-9.118;2022-08-19T12:35:29;100994.94;;;37.38;22.65
59682;BME280;45548;39.530;-9.118;2022-08-19T12:37:55;100997.09;;;37.61;21.76
59682;BME280;45548;39.530;-9.118;2022-08-19T12:40:21;100997.63;;;37.66;22.24
59682;BME280;45548;39.530;-9.118;2022-08-19T12:42:46;100988.56;;;37.62;22.10
59682;BME280;45548;39.530;-9.118;2022-08-19T12:45:15;100986.81;;;37.86;21.53
59682;BME280;45548;39.530;-9.118;2022-08-19T12:47:40;100996.44;;;37.95;22.79
59682;BME280;45548;39.530;-9.118;2022-08-19T12:50:07;100988.31;;;37.99;22.43
59682;BME280;45548;39.530;-9.118;2022-08-19T12:52:34;100991.78;;;37.80;22.25
59682;BME280;45548;39.530;-9.118;2022-08-19T12:55:03;100993.66;;;37.64;22.42
59682;BME280;45548;39.530;-9.118;2022-08-19T12:57:29;100995.16;;;37.61;22.46
59682;BME280;45548;39.530;-9.118;2022-08-19T12:59:56;100991.72;;;37.64;22.36
59682;BME280;45548;39.530;-9.118;2022-08-19T13:02:22;100988.91;;;37.77;21.32
59682;BME280;45548;39.530;-9.118;2022-08-19T13:04:47;100990.25;;;37.67;22.82
59682;BME280;45548;39.530;-9.118;2022-08-19T13:07:13;100988.38;;;37.55;22.45
59682;BME280;45548;39.530;-9.118;2022-08-19T13:09:39;100973.94;;;37.70;22.80
59682;BME280;45548;39.530;-9.118;2022-08-19T13:12:08;100975.69;;;37.79;21.96
59682;BME280;45548;39.530;-9.118;2022-08-19T13:14:39;100974.44;;;37.88;20.92
59682;BME280;45548;39.530;-9.118;2022-08-19T13:17:05;100975.16;;;37.57;22.16
59682;BME280;45548;39.530;-9.118;2022-08-19T13:19:31;100982.53;;;38.01;22.22
59682;BME280;45548;39.530;-9.118;2022-08-19T13:21:56;100981.34;;;37.70;22.21
59682;BME280;45548;39.530;-9.118;2022-08-19T13:24:23;100977.03;;;37.53;22.73
59682;BME280;45548;39.530;-9.118;2022-08-19T13:26:48;100987.22;;;37.72;23.60
59682;BME280;45548;39.530;-9.118;2022-08-19T13:29:14;100985.13;;;37.65;22.67
59682;BME280;45548;39.530;-9.118;2022-08-19T13:31:58;100980.63;;;37.57;22.35
59682;BME280;45548;39.530;-9.118;2022-08-19T13:34:42;100987.41;;;37.20;23.37
59682;BME280;45548;39.530;-9.118;2022-08-19T13:37:07;100977.53;;;36.75;23.36
59682;BME280;45548;39.530;-9.118;2022-08-19T13:39:34;100983.53;;;36.80;23.77
59682;BME280;45548;39.530;-9.118;2022-08-19T13:42:01;100978.34;;;36.51;24.37
59682;BME280;45548;39.530;-9.118;2022-08-19T13:44:28;100981.41;;;36.74;24.60
59682;BME280;45548;39.530;-9.118;2022-08-19T13:47:04;100971.31;;;36.62;24.44
59682;BME280;45548;39.530;-9.118;2022-08-19T13:49:35;100977.91;;;36.61;25.46
59682;BME280;45548;39.530;-9.118;2022-08-19T13:52:02;100979.63;;;36.53;24.59
59682;BME280;45548;39.530;-9.118;2022-08-19T13:54:28;100968.72;;;36.29;24.35
59682;BME280;45548;39.530;-9.118;2022-08-19T13:56:53;100961.47;;;36.08;26.20
59682;BME280;45548;39.530;-9.118;2022-08-19T13:59:21;100967.56;;;36.30;25.90
59682;BME280;45548;39.530;-9.118;2022-08-19T14:01:47;100966.22;;;36.36;25.95
59682;BME280;45548;39.530;-9.118;2022-08-19T14:04:12;100963.13;;;35.89;26.06
59682;BME280;45548;39.530;-9.118;2022-08-19T14:06:38;100961.28;;;35.23;26.92
59682;BME280;45548;39.530;-9.118;2022-08-19T14:09:03;100958.41;;;35.19;27.06
59682;BME280;45548;39.530;-9.118;2022-08-19T14:11:30;100959.31;;;35.44;27.28
59682;BME280;45548;39.530;-9.118;2022-08-19T14:13:55;100948.28;;;35.86;26.44
59682;BME280;45548;39.530;-9.118;2022-08-19T14:16:21;100957.34;;;35.78;25.21
59682;BME280;45548;39.530;-9.118;2022-08-19T14:18:47;100943.16;;;35.72;24.68
59682;BME280;45548;39.530;-9.118;2022-08-19T14:21:19;100944.28;;;35.83;25.35
59682;BME280;45548;39.530;-9.118;2022-08-19T14:23:45;100950.56;;;36.08;26.03
59682;BME280;45548;39.530;-9.118;2022-08-19T14:26:13;100949.22;;;36.39;25.66
59682;BME280;45548;39.530;-9.118;2022-08-19T14:28:40;100950.00;;;36.52;25.23
59682;BME280;45548;39.530;-9.118;2022-08-19T14:31:11;100941.94;;;36.31;26.91
59682;BME280;45548;39.530;-9.118;2022-08-19T14:33:37;100950.31;;;35.89;27.20
59682;BME280;45548;39.530;-9.118;2022-08-19T14:36:03;100950.84;;;35.25;27.86
59682;BME280;45548;39.530;-9.118;2022-08-19T14:38:29;100932.69;;;34.75;28.43
59682;BME280;45548;39.530;-9.118;2022-08-19T14:41:13;100938.19;;;34.45;29.83
59682;BME280;45548;39.530;-9.118;2022-08-19T14:43:42;100933.91;;;34.86;29.22
59682;BME280;45548;39.530;-9.118;2022-08-19T14:46:08;100929.75;;;34.89;28.67
59682;BME280;45548;39.530;-9.118;2022-08-19T14:48:35;100936.28;;;34.88;28.96
59682;BME280;45548;39.530;-9.118;2022-08-19T14:51:03;100926.22;;;34.46;29.83
59682;BME280;45548;39.530;-9.118;2022-08-19T14:53:29;100929.47;;;34.31;30.58
59682;BME280;45548;39.530;-9.118;2022-08-19T14:55:54;100928.34;;;34.32;30.40
59682;BME280;45548;39.530;-9.118;2022-08-19T14:58:20;100929.03;;;34.29;30.07
59682;BME280;45548;39.530;-9.118;2022-08-19T15:00:45;100933.03;;;34.23;30.71
59682;BME280;45548;39.530;-9.118;2022-08-19T15:03:11;100924.84;;;34.02;30.23
59682;BME280;45548;39.530;-9.118;2022-08-19T15:05:38;100933.03;;;34.23;30.89
59682;BME280;45548;39.530;-9.118;2022-08-19T15:08:04;100927.13;;;33.91;31.11
59682;BME280;45548;39.530;-9.118;2022-08-19T15:10:29;100925.66;;;33.56;31.92
59682;BME280;45548;39.530;-9.118;2022-08-19T15:12:56;100932.97;;;33.38;32.81
59682;BME280;45548;39.530;-9.118;2022-08-19T15:15:21;100931.09;;;33.47;31.44
59682;BME280;45548;39.530;-9.118;2022-08-19T15:17:48;100926.66;;;32.91;31.89
59682;BME280;45548;39.530;-9.118;2022-08-19T15:20:18;100923.31;;;33.11;31.38
59682;BME280;45548;39.530;-9.118;2022-08-19T15:22:44;100917.88;;;33.28;30.67
59682;BME280;45548;39.530;-9.118;2022-08-19T15:25:12;100912.94;;;33.04;30.96
59682;BME280;45548;39.530;-9.118;2022-08-19T15:27:39;100914.03;;;32.77;31.17
59682;BME280;45548;39.530;-9.118;2022-08-19T15:30:06;100922.03;;;32.82;31.32
59682;BME280;45548;39.530;-9.118;2022-08-19T15:32:33;100928.22;;;32.74;30.81
59682;BME280;45548;39.530;-9.118;2022-08-19T15:35:00;100914.22;;;32.81;30.71
59682;BME280;45548;39.530;-9.118;2022-08-19T15:37:27;100927.91;;;32.84;30.75
59682;BME280;45548;39.530;-9.118;2022-08-19T15:39:56;100929.53;;;32.85;30.26
59682;BME280;45548;39.530;-9.118;2022-08-19T15:42:21;100922.06;;;33.00;30.51
59682;BME280;45548;39.530;-9.118;2022-08-19T15:44:47;100920.09;;;32.83;29.07
59682;BME280;45548;39.530;-9.118;2022-08-19T15:47:13;100928.22;;;32.74;29.66
59682;BME280;45548;39.530;-9.118;2022-08-19T15:49:39;100921.06;;;33.04;29.02
59682;BME280;45548;39.530;-9.118;2022-08-19T15:52:05;100925.06;;;32.72;29.94
59682;BME280;45548;39.530;-9.118;2022-08-19T15:54:32;100920.69;;;32.37;29.88
59682;BME280;45548;39.530;-9.118;2022-08-19T15:56:57;100911.69;;;32.10;30.59
59682;BME280;45548;39.530;-9.118;2022-08-19T15:59:41;100916.91;;;31.98;31.01
59682;BME280;45548;39.530;-9.118;2022-08-19T16:02:26;100920.19;;;31.86;31.41
59682;BME280;45548;39.530;-9.118;2022-08-19T16:05:13;100913.56;;;32.01;30.50
59682;BME280;45548;39.530;-9.118;2022-08-19T16:07:58;100911.91;;;31.83;30.36
59682;BME280;45548;39.530;-9.118;2022-08-19T16:10:24;100904.00;;;31.64;30.28
59682;BME280;45548;39.530;-9.118;2022-08-19T16:12:49;100900.88;;;31.70;31.05
59682;BME280;45548;39.530;-9.118;2022-08-19T16:15:15;100906.41;;;31.65;29.72
59682;BME280;45548;39.530;-9.118;2022-08-19T16:17:40;100901.56;;;31.53;29.67
59682;BME280;45548;39.530;-9.118;2022-08-19T16:20:08;100897.22;;;31.44;29.17
59682;BME280;45548;39.530;-9.118;2022-08-19T16:22:34;100907.63;;;31.59;29.02
59682;BME280;45548;39.530;-9.118;2022-08-19T16:25:00;100907.50;;;31.95;28.53
59682;BME280;45548;39.530;-9.118;2022-08-19T16:27:26;100901.59;;;31.85;28.66
59682;BME280;45548;39.530;-9.118;2022-08-19T16:29:52;100905.75;;;31.91;28.57
59682;BME280;45548;39.530;-9.118;2022-08-19T16:32:17;100894.56;;;31.84;28.14
59682;BME280;45548;39.530;-9.118;2022-08-19T16:34:44;100909.28;;;32.00;28.87
59682;BME280;45548;39.530;-9.118;2022-08-19T16:37:10;100911.41;;;32.20;29.71
59682;BME280;45548;39.530;-9.118;2022-08-19T16:39:36;100905.53;;;32.27;30.00
59682;BME280;45548;39.530;-9.118;2022-08-19T16:42:03;100904.88;;;32.21;30.58
59682;BME280;45548;39.530;-9.118;2022-08-19T16:44:30;100905.78;;;31.77;31.82
59682;BME280;45548;39.530;-9.118;2022-08-19T16:46:56;100916.03;;;31.27;33.19
59682;BME280;45548;39.530;-9.118;2022-08-19T16:49:23;100902.25;;;30.92;34.75
59682;BME280;45548;39.530;-9.118;2022-08-19T16:51:50;100911.13;;;30.56;35.23
59682;BME280;45548;39.530;-9.118;2022-08-19T16:54:16;100906.16;;;30.36;34.78
59682;BME280;45548;39.530;-9.118;2022-08-19T16:56:43;100909.66;;;30.09;36.27
59682;BME280;45548;39.530;-9.118;2022-08-19T16:59:08;100924.31;;;30.03;36.63
59682;BME280;45548;39.530;-9.118;2022-08-19T17:01:34;100914.53;;;29.93;36.70
59682;BME280;45548;39.530;-9.118;2022-08-19T17:04:00;100905.91;;;29.63;37.74
59682;BME280;45548;39.530;-9.118;2022-08-19T17:06:27;100903.19;;;29.31;38.59
59682;BME280;45548;39.530;-9.118;2022-08-19T17:08:56;100911.53;;;29.16;39.76
59682;BME280;45548;39.530;-9.118;2022-08-19T17:11:24;100911.91;;;29.09;40.34
59682;BME280;45548;39.530;-9.118;2022-08-19T17:13:50;100911.69;;;29.05;40.34
59682;BME280;45548;39.530;-9.118;2022-08-19T17:16:22;100918.09;;;29.09;40.52
59682;BME280;45548;39.530;-9.118;2022-08-19T17:18:49;100907.22;;;28.77;41.28
59682;BME280;45548;39.530;-9.118;2022-08-19T17:21:20;100919.81;;;28.63;41.85
59682;BME280;45548;39.530;-9.118;2022-08-19T17:23:46;100913.66;;;28.38;41.97
59682;BME280;45548;39.530;-9.118;2022-08-19T17:26:14;100922.81;;;28.13;42.47
59682;BME280;45548;39.530;-9.118;2022-08-19T17:28:39;100906.78;;;27.79;42.98
59682;BME280;45548;39.530;-9.118;2022-08-19T17:31:05;100920.50;;;27.78;42.31
59682;BME280;45548;39.530;-9.118;2022-08-19T17:33:32;100914.31;;;27.77;42.76
59682;BME280;45548;39.530;-9.118;2022-08-19T17:35:57;100915.94;;;27.78;42.96
59682;BME280;45548;39.530;-9.118;2022-08-19T17:38:23;100922.59;;;27.52;43.39
59682;BME280;45548;39.530;-9.118;2022-08-19T17:40:49;100919.69;;;27.43;44.37
59682;BME280;45548;39.530;-9.118;2022-08-19T17:43:15;100901.75;;;27.38;43.81
59682;BME280;45548;39.530;-9.118;2022-08-19T17:45:43;100909.09;;;27.23;44.33
59682;BME280;45548;39.530;-9.118;2022-08-19T17:48:10;100912.19;;;27.06;44.52
59682;BME280;45548;39.530;-9.118;2022-08-19T17:50:37;100892.84;;;26.59;44.88
59682;BME280;45548;39.530;-9.118;2022-08-19T17:53:03;100892.19;;;26.23;45.40
59682;BME280;45548;39.530;-9.118;2022-08-19T17:55:30;100884.78;;;25.95;46.30
59682;BME280;45548;39.530;-9.118;2022-08-19T17:57:56;100898.69;;;25.97;46.27
59682;BME280;45548;39.530;-9.118;2022-08-19T18:00:23;100900.84;;;25.95;45.83
59682;BME280;45548;39.530;-9.118;2022-08-19T18:02:54;100899.25;;;25.83;46.05
59682;BME280;45548;39.530;-9.118;2022-08-19T18:05:30;100894.47;;;25.55;46.65
59682;BME280;45548;39.530;-9.118;2022-08-19T18:07:56;100889.34;;;25.33;47.05
59682;BME280;45548;39.530;-9.118;2022-08-19T18:10:25;100904.34;;;25.24;46.72
59682;BME280;45548;39.530;-9.118;2022-08-19T18:12:51;100903.75;;;24.86;47.66
59682;BME280;45548;39.530;-9.118;2022-08-19T18:15:19;100901.44;;;24.37;49.26
59682;BME280;45548;39.530;-9.118;2022-08-19T18:17:45;100897.16;;;23.89;50.20
59682;BME280;45548;39.530;-9.118;2022-08-19T18:20:13;100903.09;;;23.64;50.52
59682;BME280;45548;39.530;-9.118;2022-08-19T18:22:44;100906.06;;;23.35;51.63
59682;BME280;45548;39.530;-9.118;2022-08-19T18:27:38;100913.28;;;23.08;52.49
59682;BME280;45548;39.530;-9.118;2022-08-19T18:30:05;100908.47;;;23.05;52.07
59682;BME280;45548;39.530;-9.118;2022-08-19T18:32:32;100912.47;;;23.07;51.89
59682;BME280;45548;39.530;-9.118;2022-08-19T18:35:08;100912.13;;;22.99;52.32
59682;BME280;45548;39.530;-9.118;2022-08-19T18:37:36;100902.09;;;22.84;51.82
59682;BME280;45548;39.530;-9.118;2022-08-19T18:40:04;100909.16;;;22.73;51.70
59682;BME280;45548;39.530;-9.118;2022-08-19T18:42:48;100904.88;;;22.72;51.64
59682;BME280;45548;39.530;-9.118;2022-08-19T18:45:32;100908.28;;;22.68;51.96
59682;BME280;45548;39.530;-9.118;2022-08-19T18:48:16;100907.66;;;22.60;52.17
59682;BME280;45548;39.530;-9.118;2022-08-19T18:51:00;100903.28;;;22.49;51.87
59682;BME280;45548;39.530;-9.118;2022-08-19T18:53:29;100903.16;;;22.39;51.93
59682;BME280;45548;39.530;-9.118;2022-08-19T18:55:56;100909.16;;;22.29;52.81
59682;BME280;45548;39.530;-9.118;2022-08-19T18:58:23;100909.53;;;22.16;52.84
59682;BME280;45548;39.530;-9.118;2022-08-19T19:00:49;100899.19;;;22.03;52.43
59682;BME280;45548;39.530;-9.118;2022-08-19T19:03:15;100906.84;;;21.99;52.64
59682;BME280;45548;39.530;-9.118;2022-08-19T19:05:40;100904.63;;;21.91;53.42
59682;BME280;45548;39.530;-9.118;2022-08-19T19:08:06;100910.34;;;21.83;52.99
59682;BME280;45548;39.530;-9.118;2022-08-19T19:10:32;100910.34;;;21.83;52.79
59682;BME280;45548;39.530;-9.118;2022-08-19T19:12:59;100914.28;;;21.80;52.41
59682;BME280;45548;39.530;-9.118;2022-08-19T19:15:25;100920.34;;;21.76;52.96
59682;BME280;45548;39.530;-9.118;2022-08-19T19:17:51;100915.91;;;21.65;53.14
59682;BME280;45548;39.530;-9.118;2022-08-19T19:20:18;100922.44;;;21.57;54.00
59682;BME280;45548;39.530;-9.118;2022-08-19T19:22:44;100908.72;;;21.32;53.83
59682;BME280;45548;39.530;-9.118;2022-08-19T19:25:10;100916.69;;;21.32;54.65
59682;BME280;45548;39.530;-9.118;2022-08-19T19:27:36;100920.22;;;21.20;54.57
59682;BME280;45548;39.530;-9.118;2022-08-19T19:30:05;100916.66;;;21.15;54.34
59682;BME280;45548;39.530;-9.118;2022-08-19T19:32:30;100930.41;;;21.12;54.32
59682;BME280;45548;39.530;-9.118;2022-08-19T19:41:57;100911.97;;;20.65;56.65
59682;BME280;45548;39.530;-9.118;2022-08-19T19:48:24;100935.69;;;20.31;59.43
59682;BME280;45548;39.530;-9.118;2022-08-19T20:01:20;100931.72;;;19.52;62.85
59682;BME280;45548;39.530;-9.118;2022-08-19T20:04:06;100943.75;;;19.36;63.54
59682;BME280;45548;39.530;-9.118;2022-08-19T20:06:32;100941.38;;;19.16;64.79
59682;BME280;45548;39.530;-9.118;2022-08-19T20:09:04;100949.06;;;19.06;65.19
59682;BME280;45548;39.530;-9.118;2022-08-19T20:11:45;100949.97;;;19.00;65.78
59682;BME280;45548;39.530;-9.118;2022-08-19T20:16:51;100954.22;;;18.82;67.10
59682;BME280;45548;39.530;-9.118;2022-08-19T20:19:22;100976.03;;;18.85;67.69
59682;BME280;45548;39.530;-9.118;2022-08-19T20:21:50;100973.09;;;18.74;68.38
59682;BME280;45548;39.530;-9.118;2022-08-19T20:24:25;100973.75;;;18.70;68.94
59682;BME280;45548;39.530;-9.118;2022-08-19T20:26:51;100988.97;;;18.74;69.23
59682;BME280;45548;39.530;-9.118;2022-08-19T20:29:18;100978.06;;;18.64;69.89
59682;BME280;45548;39.530;-9.118;2022-08-19T20:31:45;100974.53;;;18.52;70.65